createdAt,value
2022-08-21T00:02:16.819Z,60.17
2022-08-21T00:04:57.001Z,57.08
2022-08-21T00:07:27.907Z,63.53
2022-08-21T00:09:57.573Z,64.20
2022-08-21T00:12:28.365Z,63.38
2022-08-21T00:14:58.245Z,64.05
2022-08-21T00:17:28.362Z,67.07
2022-08-21T00:19:59.022Z,65.60
2022-08-21T00:22:28.454Z,68.33
2022-08-21T00:24:57.973Z,67.45
2022-08-21T00:27:27.553Z,71.28
2022-08-21T00:29:57.627Z,71.75
2022-08-21T00:32:28.788Z,66.85
2022-08-21T00:35:00.003Z,67.53
2022-08-21T00:37:30.517Z,78.10
2022-08-21T00:40:01.155Z,68.65
2022-08-21T00:42:32.842Z,70.57
2022-08-21T00:45:03.457Z,67.97
2022-08-21T00:47:33.218Z,64.03
2022-08-21T00:50:04.626Z,69.78
2022-08-21T00:55:06.008Z,72.03
2022-08-21T00:57:43.150Z,70.63
2022-08-21T01:00:18.497Z,70.35
2022-08-21T01:02:48.308Z,64.45
2022-08-21T01:05:19.431Z,63.17
2022-08-21T01:07:48.991Z,73.50
2022-08-21T01:10:24.044Z,68.63
2022-08-21T01:12:56.258Z,70.45
2022-08-21T01:15:29.825Z,69.78
2022-08-21T01:17:59.758Z,70.22
2022-08-21T01:20:32.322Z,73.30
2022-08-21T01:23:06.569Z,69.97
2022-08-21T01:25:36.777Z,72.05
2022-08-21T01:28:13.581Z,74.20
2022-08-21T01:30:44.801Z,70.03
2022-08-21T01:33:14.209Z,74.07
2022-08-21T01:35:43.596Z,70.15
2022-08-21T01:38:16.325Z,72.85
2022-08-21T01:40:45.893Z,70.88
2022-08-21T01:43:15.303Z,66.60
2022-08-21T01:45:44.772Z,69.13
2022-08-21T01:48:14.166Z,72.32
2022-08-21T01:50:43.775Z,65.35
2022-08-21T01:53:16.502Z,64.78
2022-08-21T01:55:46.662Z,71.38
2022-08-21T01:58:17.603Z,70.82
2022-08-21T02:00:46.728Z,62.85
2022-08-21T02:03:34.974Z,69.35
2022-08-21T02:06:05.730Z,65.60
2022-08-21T02:08:37.172Z,64.75
2022-08-21T02:11:06.588Z,60.72
2022-08-21T02:13:36.049Z,57.90
2022-08-21T02:16:06.603Z,62.47
2022-08-21T02:18:36.123Z,58.30
2022-08-21T02:21:07.074Z,61.35
2022-08-21T02:23:37.992Z,64.50
2022-08-21T02:26:10.299Z,58.60
2022-08-21T02:28:40.555Z,59.97
2022-08-21T02:31:09.818Z,59.65
2022-08-21T02:33:40.604Z,65.43
2022-08-21T02:36:11.386Z,55.63
2022-08-21T02:38:44.216Z,58.95
2022-08-21T02:41:15.639Z,66.85
2022-08-21T02:43:45.324Z,57.28
2022-08-21T02:46:17.409Z,55.92
2022-08-21T02:48:47.413Z,60.08
2022-08-21T02:51:20.094Z,58.35
2022-08-21T02:53:51.808Z,68.00
2022-08-21T03:01:26.119Z,59.45
2022-08-21T03:03:56.682Z,52.95
2022-08-21T03:06:27.541Z,56.88
2022-08-21T03:08:58.814Z,56.35
2022-08-21T03:11:28.143Z,57.80
2022-08-21T03:13:57.711Z,56.55
2022-08-21T03:16:30.979Z,49.60
2022-08-21T03:19:04.391Z,47.80
2022-08-21T03:21:34.648Z,53.83
2022-08-21T03:24:07.962Z,54.53
2022-08-21T03:26:37.379Z,49.50
2022-08-21T03:29:10.288Z,60.10
2022-08-21T03:31:41.120Z,48.53
2022-08-21T03:34:10.584Z,52.63
2022-08-21T03:36:39.843Z,48.63
2022-08-21T03:39:10.470Z,49.67
2022-08-21T03:41:40.227Z,48.97
2022-08-21T03:44:10.411Z,44.95
2022-08-21T03:46:41.198Z,54.22
2022-08-21T03:49:11.225Z,51.00
2022-08-21T03:51:43.816Z,48.17
2022-08-21T03:54:15.166Z,48.58
2022-08-21T03:56:44.651Z,45.70
2022-08-21T03:59:14.563Z,48.53
2022-08-21T04:01:54.794Z,45.88
2022-08-21T04:04:24.552Z,43.05
2022-08-21T04:06:54.955Z,46.33
2022-08-21T04:09:25.533Z,45.80
2022-08-21T04:11:55.606Z,53.00
2022-08-21T04:14:25.261Z,44.67
2022-08-21T04:16:54.898Z,42.78
2022-08-21T04:19:26.152Z,50.28
2022-08-21T04:21:56.194Z,49.15
2022-08-21T04:24:27.536Z,45.83
2022-08-21T04:27:00.778Z,45.67
2022-08-21T04:29:30.241Z,47.05
2022-08-21T04:31:59.569Z,49.85
2022-08-21T04:34:29.239Z,46.83
2022-08-21T04:36:59.064Z,44.50
2022-08-21T04:39:29.958Z,44.78
2022-08-21T04:41:58.912Z,53.88
2022-08-21T04:44:28.268Z,47.13
2022-08-21T04:46:57.808Z,50.22
2022-08-21T04:49:27.850Z,48.65
2022-08-21T04:51:57.907Z,48.17
2022-08-21T04:54:28.919Z,52.38
2022-08-21T04:57:01.641Z,56.72
2022-08-21T04:59:34.316Z,50.33
2022-08-21T05:02:04.889Z,52.92
2022-08-21T05:04:37.967Z,53.13
2022-08-21T05:07:14.691Z,53.60
2022-08-21T05:09:45.948Z,57.30
2022-08-21T05:12:16.065Z,53.00
2022-08-21T05:14:45.661Z,56.33
2022-08-21T05:17:15.684Z,54.20
2022-08-21T05:19:45.272Z,56.97
2022-08-21T05:22:22.193Z,53.50
2022-08-21T05:24:53.874Z,58.25
2022-08-21T05:27:31.636Z,52.92
2022-08-21T05:30:04.087Z,61.47
2022-08-21T05:32:34.126Z,56.70
2022-08-21T05:35:05.118Z,59.22
2022-08-21T05:37:35.366Z,59.08
2022-08-21T05:40:21.645Z,57.33
2022-08-21T05:42:56.841Z,59.45
2022-08-21T05:45:42.641Z,57.47
2022-08-21T05:48:16.894Z,59.55
2022-08-21T05:50:52.399Z,58.97
2022-08-21T05:53:27.258Z,59.90
2022-08-21T05:55:58.488Z,47.65
2022-08-21T05:58:29.219Z,49.17
2022-08-21T06:01:00.136Z,54.00
2022-08-21T06:03:32.455Z,60.45
2022-08-21T06:06:02.932Z,51.13
2022-08-21T06:08:35.906Z,50.33
2022-08-21T06:11:08.494Z,47.97
2022-08-21T06:13:40.131Z,44.92
2022-08-21T06:18:41.851Z,41.73
2022-08-21T06:21:12.595Z,45.38
2022-08-21T06:23:46.517Z,44.17
2022-08-21T06:26:17.701Z,50.88
2022-08-21T06:28:47.994Z,47.58
2022-08-21T06:31:20.704Z,43.25
2022-08-21T06:33:51.472Z,51.00
2022-08-21T06:36:21.936Z,40.90
2022-08-21T06:38:51.995Z,47.53
2022-08-21T06:41:26.548Z,39.47
2022-08-21T06:43:58.754Z,42.33
2022-08-21T06:46:30.373Z,46.47
2022-08-21T06:49:04.381Z,45.88
2022-08-21T06:51:35.532Z,44.47
2022-08-21T06:54:10.873Z,42.95
2022-08-21T06:56:41.701Z,41.17
2022-08-21T06:59:17.153Z,41.80
2022-08-21T07:01:47.551Z,39.05
2022-08-21T07:04:17.224Z,33.83
2022-08-21T07:06:46.948Z,37.45
2022-08-21T07:09:16.568Z,36.33
2022-08-21T07:11:55.944Z,40.00
2022-08-21T07:14:25.854Z,40.55
2022-08-21T07:16:56.815Z,42.03
2022-08-21T07:19:26.324Z,38.85
2022-08-21T07:21:59.459Z,39.22
2022-08-21T07:24:30.451Z,50.00
2022-08-21T07:27:01.005Z,40.05
2022-08-21T07:29:30.324Z,41.40
2022-08-21T07:32:02.391Z,43.63
2022-08-21T07:34:34.500Z,36.72
2022-08-21T07:37:06.333Z,39.20
2022-08-21T07:39:39.645Z,34.50
2022-08-21T07:42:11.214Z,38.22
2022-08-21T07:44:41.180Z,37.20
2022-08-21T07:47:11.713Z,36.20
2022-08-21T07:49:41.570Z,38.50
2022-08-21T07:52:12.344Z,34.05
2022-08-21T07:54:41.900Z,34.88
2022-08-21T07:57:12.501Z,33.17
2022-08-21T07:59:41.918Z,35.22
2022-08-21T08:02:13.004Z,38.40
2022-08-21T08:04:50.717Z,35.00
2022-08-21T08:07:21.780Z,40.67
2022-08-21T08:09:51.929Z,31.23
2022-08-21T08:12:30.333Z,31.73
2022-08-21T08:15:00.769Z,34.00
2022-08-21T08:17:36.360Z,32.08
2022-08-21T08:20:08.747Z,35.03
2022-08-21T08:22:40.240Z,29.90
2022-08-21T08:25:13.581Z,28.52
2022-08-21T08:27:44.925Z,29.77
2022-08-21T08:30:19.744Z,36.05
2022-08-21T08:32:51.893Z,29.02
2022-08-21T08:35:24.843Z,27.13
2022-08-21T08:37:56.146Z,35.92
2022-08-21T08:40:36.858Z,38.03
2022-08-21T08:43:09.957Z,34.75
2022-08-21T08:45:49.639Z,33.80
2022-08-21T08:48:47.180Z,35.47
2022-08-21T08:51:28.395Z,37.92
2022-08-21T08:54:08.286Z,31.92
2022-08-21T08:56:39.907Z,30.83
2022-08-21T08:59:21.801Z,29.42
2022-08-21T09:01:54.550Z,27.70
2022-08-21T09:04:30.435Z,26.40
2022-08-21T09:07:12.631Z,37.00
2022-08-21T09:09:58.257Z,28.48
2022-08-21T09:12:40.544Z,26.23
2022-08-21T09:15:23.298Z,28.25
2022-08-21T09:18:11.526Z,30.27
2022-08-21T09:20:59.536Z,29.73
2022-08-21T09:23:39.409Z,26.92
2022-08-21T09:26:15.558Z,25.00
2022-08-21T09:28:45.596Z,27.58
2022-08-21T09:31:26.262Z,23.73
2022-08-21T09:34:01.512Z,25.35
2022-08-21T09:36:39.611Z,21.83
2022-08-21T09:39:11.891Z,21.75
2022-08-21T09:41:42.317Z,24.58
2022-08-21T09:44:13.063Z,26.42
2022-08-21T09:46:52.878Z,23.73
2022-08-21T09:49:41.593Z,24.48
2022-08-21T09:52:20.835Z,26.20
2022-08-21T09:54:54.322Z,21.88
2022-08-21T09:57:50.565Z,24.55
2022-08-21T10:00:30.891Z,22.05
2022-08-21T10:03:26.210Z,17.55
2022-08-21T10:06:09.158Z,22.70
2022-08-21T10:08:41.545Z,18.30
2022-08-21T10:11:16.917Z,19.88
2022-08-21T10:13:59.317Z,16.92
2022-08-21T10:16:41.186Z,11.88
2022-08-21T10:19:27.785Z,15.80
2022-08-21T10:22:10.809Z,12.85
2022-08-21T10:24:50.948Z,12.57
2022-08-21T10:27:28.726Z,11.52
2022-08-21T10:30:05.851Z,18.33
2022-08-21T10:33:00.099Z,12.68
2022-08-21T10:35:37.688Z,14.70
2022-08-21T10:38:55.220Z,13.70
2022-08-21T10:41:49.972Z,10.32
2022-08-21T10:44:32.922Z,9.93
2022-08-21T10:47:13.432Z,13.95
2022-08-21T10:49:51.461Z,11.30
2022-08-21T10:52:54.700Z,11.70
2022-08-21T10:55:27.928Z,14.68
2022-08-21T10:58:13.830Z,8.80
2022-08-21T11:00:56.766Z,9.98
2022-08-21T11:03:34.399Z,11.93
2022-08-21T11:06:13.553Z,9.65
2022-08-21T11:08:48.562Z,7.57
2022-08-21T11:11:23.801Z,8.93
2022-08-21T11:14:01.080Z,8.55
2022-08-21T11:16:40.136Z,8.60
2022-08-21T11:19:16.544Z,7.05
2022-08-21T11:21:52.387Z,10.23
2022-08-21T11:24:33.372Z,10.57
2022-08-21T11:27:12.422Z,9.20
2022-08-21T11:29:45.319Z,7.85
2022-08-21T11:32:42.496Z,9.30
2022-08-21T11:35:22.730Z,8.05
2022-08-21T11:38:07.779Z,9.95
2022-08-21T11:40:55.326Z,10.40
2022-08-21T11:43:34.980Z,11.07
2022-08-21T11:46:19.290Z,8.40
2022-08-21T11:49:01.763Z,6.50
2022-08-21T11:51:36.824Z,13.45
2022-08-21T11:54:19.176Z,9.55
2022-08-21T11:57:00.670Z,14.73
2022-08-21T11:59:40.867Z,15.52
2022-08-21T12:02:16.187Z,10.35
2022-08-21T12:04:52.100Z,11.10
2022-08-21T12:07:37.509Z,13.73
2022-08-21T12:10:11.405Z,13.52
2022-08-21T12:12:45.421Z,12.27
2022-08-21T12:15:31.422Z,10.70
2022-08-21T12:18:04.415Z,12.45
2022-08-21T12:20:50.845Z,15.52
2022-08-21T12:23:48.795Z,12.25
2022-08-21T12:26:28.792Z,14.35
2022-08-21T12:29:24.189Z,9.25
2022-08-21T12:32:00.994Z,7.88
2022-08-21T12:34:40.680Z,8.45
2022-08-21T12:37:23.621Z,9.90
2022-08-21T12:39:59.010Z,7.88
2022-08-21T12:42:44.016Z,10.52
2022-08-21T12:45:22.269Z,10.15
2022-08-21T12:47:56.182Z,5.05
2022-08-21T12:50:37.285Z,8.10
2022-08-21T12:53:18.605Z,11.15
2022-08-21T12:55:52.585Z,15.43
2022-08-21T12:58:24.052Z,16.15
2022-08-21T13:00:58.316Z,8.13
2022-08-21T13:03:30.091Z,8.38
2022-08-21T13:06:02.324Z,9.93
2022-08-21T13:08:40.137Z,13.55
2022-08-21T13:11:14.939Z,9.73
2022-08-21T13:13:51.082Z,16.95
2022-08-21T13:16:32.006Z,15.98
2022-08-21T13:19:06.995Z,7.57
2022-08-21T13:21:45.551Z,12.85
2022-08-21T13:24:41.952Z,11.95
2022-08-21T13:27:26.895Z,9.65
2022-08-21T13:30:12.509Z,12.40
2022-08-21T13:32:46.507Z,9.25
2022-08-21T13:35:20.441Z,12.27
2022-08-21T13:37:52.847Z,16.65
2022-08-21T13:40:28.533Z,15.88
2022-08-21T13:43:00.093Z,7.88
2022-08-21T13:45:35.893Z,11.75
2022-08-21T13:48:07.964Z,16.27
2022-08-21T13:50:44.755Z,13.68
2022-08-21T13:53:26.254Z,12.02
2022-08-21T13:56:00.356Z,10.75
2022-08-21T13:58:33.789Z,21.30
2022-08-21T14:01:07.692Z,10.93
2022-08-21T14:03:44.986Z,7.95
2022-08-21T14:06:18.041Z,10.18
2022-08-21T14:08:54.241Z,8.70
2022-08-21T14:11:28.860Z,12.43
2022-08-21T14:14:05.169Z,6.70
2022-08-21T14:16:47.965Z,13.43
2022-08-21T14:19:39.981Z,11.15
2022-08-21T14:22:39.970Z,15.40
2022-08-21T14:25:14.344Z,14.77
2022-08-21T14:27:47.541Z,12.10
2022-08-21T14:30:23.407Z,11.25
2022-08-21T14:33:04.572Z,14.38
2022-08-21T14:35:36.628Z,12.07
2022-08-21T14:38:17.167Z,13.68
2022-08-21T14:40:51.780Z,14.52
2022-08-21T14:43:25.366Z,12.52
2022-08-21T14:45:58.989Z,24.33
2022-08-21T14:48:30.772Z,11.48
2022-08-21T14:51:02.864Z,12.75
2022-08-21T14:53:33.058Z,17.40
2022-08-21T14:56:08.437Z,16.67
2022-08-21T14:58:41.728Z,23.98
2022-08-21T15:01:14.231Z,19.92
2022-08-21T15:03:47.525Z,14.48
2022-08-21T15:06:22.255Z,11.35
2022-08-21T15:08:53.126Z,10.88
2022-08-21T15:11:41.832Z,11.05
2022-08-21T15:14:21.298Z,13.00
2022-08-21T15:16:55.000Z,24.33
2022-08-21T15:19:28.605Z,9.95
2022-08-21T15:22:00.793Z,11.70
2022-08-21T15:24:37.945Z,13.82
2022-08-21T15:27:11.739Z,7.50
2022-08-21T15:29:47.295Z,13.15
2022-08-21T15:32:26.896Z,6.65
2022-08-21T15:34:59.211Z,11.68
2022-08-21T15:37:33.874Z,11.73
2022-08-21T15:40:08.424Z,9.95
2022-08-21T15:42:40.526Z,9.68
2022-08-21T15:45:14.248Z,11.25
2022-08-21T15:47:53.962Z,8.93
2022-08-21T15:50:28.059Z,6.10
2022-08-21T15:53:02.079Z,12.68
2022-08-21T15:55:32.268Z,10.57
2022-08-21T15:58:05.892Z,5.40
2022-08-21T16:00:40.859Z,8.68
2022-08-21T16:03:13.670Z,6.95
2022-08-21T16:05:44.786Z,6.22
2022-08-21T16:08:17.728Z,6.35
2022-08-21T16:10:49.069Z,5.90
2022-08-21T16:13:24.245Z,9.43
2022-08-21T16:15:55.006Z,8.07
2022-08-21T16:18:30.376Z,7.85
2022-08-21T16:21:15.354Z,9.07
2022-08-21T16:23:50.304Z,8.77
2022-08-21T16:26:21.159Z,9.73
2022-08-21T16:28:59.413Z,8.80
2022-08-21T16:31:36.926Z,4.75
2022-08-21T16:34:20.253Z,7.13
2022-08-21T16:36:52.019Z,8.48
2022-08-21T16:39:24.230Z,6.57
2022-08-21T16:41:57.005Z,7.68
2022-08-21T16:44:30.138Z,7.32
2022-08-21T16:47:05.745Z,6.90
2022-08-21T16:49:36.578Z,5.47
2022-08-21T16:52:09.387Z,6.18
2022-08-21T16:54:43.847Z,9.80
2022-08-21T16:57:18.013Z,10.77
2022-08-21T16:59:50.594Z,15.75
2022-08-21T17:02:33.120Z,12.90
2022-08-21T17:05:11.390Z,5.80
2022-08-21T17:07:47.833Z,5.35
2022-08-21T17:10:20.594Z,10.15
2022-08-21T17:12:58.435Z,8.63
2022-08-21T17:15:33.253Z,7.28
2022-08-21T17:18:12.167Z,7.95
2022-08-21T17:20:55.098Z,7.78
2022-08-21T17:23:28.368Z,9.25
2022-08-21T17:26:01.699Z,7.68
2022-08-21T17:28:36.164Z,7.10
2022-08-21T17:31:17.328Z,7.60
2022-08-21T17:33:56.457Z,4.72
2022-08-21T17:36:32.004Z,5.35
2022-08-21T17:39:06.371Z,10.80
2022-08-21T17:41:38.703Z,9.50
2022-08-21T17:44:13.281Z,13.60
2022-08-21T17:46:46.105Z,15.82
2022-08-21T17:49:17.306Z,11.88
2022-08-21T17:51:49.978Z,11.55
2022-08-21T17:54:21.553Z,6.53
2022-08-21T17:56:57.177Z,6.70
2022-08-21T17:59:30.292Z,5.03
2022-08-21T18:02:01.828Z,9.68
2022-08-21T18:04:36.348Z,6.82
2022-08-21T18:07:08.271Z,5.80
2022-08-21T18:09:41.307Z,10.45
2022-08-21T18:12:15.386Z,8.35
2022-08-21T18:14:47.152Z,12.25
2022-08-21T18:17:22.074Z,7.95
2022-08-21T18:19:52.705Z,9.65
2022-08-21T18:22:27.970Z,13.38
2022-08-21T18:24:58.307Z,5.57
2022-08-21T18:27:33.235Z,9.32
2022-08-21T18:30:10.550Z,7.32
2022-08-21T18:32:40.744Z,7.18
2022-08-21T18:35:14.672Z,8.10
2022-08-21T18:37:45.519Z,8.60
2022-08-21T18:40:17.731Z,12.53
2022-08-21T18:42:55.435Z,9.15
2022-08-21T18:45:27.707Z,7.38
2022-08-21T18:47:59.806Z,10.85
2022-08-21T18:50:34.481Z,9.02
2022-08-21T18:53:07.954Z,13.15
2022-08-21T18:58:58.471Z,3.90
2022-08-21T19:01:29.250Z,11.90
2022-08-21T19:04:01.003Z,9.23
2022-08-21T19:06:34.001Z,7.35
2022-08-21T19:09:06.523Z,18.88
2022-08-21T19:11:43.093Z,10.75
2022-08-21T19:14:38.541Z,8.70
2022-08-21T19:17:10.275Z,7.90
2022-08-21T19:19:40.444Z,10.20
2022-08-21T19:22:14.775Z,12.27
2022-08-21T19:24:50.821Z,6.53
2022-08-21T19:27:21.011Z,8.50
2022-08-21T19:29:55.779Z,9.02
2022-08-21T19:32:26.850Z,10.50
2022-08-21T19:34:58.089Z,4.68
2022-08-21T19:37:30.154Z,9.80
2022-08-21T19:40:01.142Z,3.80
2022-08-21T19:42:34.894Z,6.68
2022-08-21T19:45:09.622Z,8.60
2022-08-21T19:47:44.030Z,7.60
2022-08-21T19:50:21.371Z,10.50
2022-08-21T19:52:52.850Z,9.43
2022-08-21T19:55:25.800Z,5.65
2022-08-21T19:58:01.749Z,5.88
2022-08-21T20:00:32.769Z,10.98
2022-08-21T20:03:04.893Z,14.13
2022-08-21T20:05:44.357Z,6.85
2022-08-21T20:08:20.189Z,6.10
2022-08-21T20:10:53.601Z,8.82
2022-08-21T20:13:32.993Z,7.90
2022-08-21T20:16:07.983Z,5.57
2022-08-21T20:21:44.191Z,6.20
2022-08-21T20:24:24.101Z,8.77
2022-08-21T20:27:00.722Z,6.00
2022-08-21T20:29:39.135Z,4.47
2022-08-21T20:32:12.693Z,6.45
2022-08-21T20:34:51.988Z,6.43
2022-08-21T20:37:36.986Z,9.43
2022-08-21T20:40:15.614Z,6.35
2022-08-21T20:42:54.481Z,5.35
2022-08-21T20:45:34.606Z,7.57
2022-08-21T20:48:12.339Z,8.05
2022-08-21T20:50:48.740Z,3.38
2022-08-21T20:53:25.825Z,4.28
2022-08-21T20:56:11.508Z,5.88
2022-08-21T20:58:58.114Z,6.65
2022-08-21T21:01:35.543Z,6.40
2022-08-21T21:04:19.652Z,5.85
2022-08-21T21:06:53.377Z,6.45
2022-08-21T21:09:40.302Z,4.65
2022-08-21T21:12:18.548Z,7.60
2022-08-21T21:15:02.163Z,7.30
2022-08-21T21:17:44.159Z,10.45
2022-08-21T21:20:22.059Z,7.35
2022-08-21T21:23:05.329Z,6.53
2022-08-21T21:25:53.876Z,9.38
2022-08-21T21:28:30.842Z,11.77
2022-08-21T21:31:00.488Z,7.18
2022-08-21T21:33:34.355Z,8.77
2022-08-21T21:36:14.748Z,8.70
2022-08-21T21:39:02.135Z,9.25
2022-08-21T21:41:44.970Z,9.70
2022-08-21T21:44:28.963Z,11.70
2022-08-21T21:47:08.333Z,6.60
2022-08-21T21:49:52.499Z,8.68
2022-08-21T22:06:12.771Z,7.78
2022-08-21T22:08:51.513Z,9.38
2022-08-21T22:14:22.808Z,10.07
2022-08-21T22:16:52.711Z,7.90
2022-08-21T22:19:26.135Z,9.63
2022-08-21T22:22:09.360Z,7.50
2022-08-21T22:24:44.750Z,6.70
2022-08-21T22:27:20.179Z,8.73
2022-08-21T22:29:54.124Z,7.20
2022-08-21T22:32:28.876Z,10.65
2022-08-21T22:35:09.456Z,7.72
2022-08-21T22:37:43.167Z,7.05
2022-08-21T22:40:15.920Z,10.60
2022-08-21T22:42:59.272Z,6.65
2022-08-21T22:46:06.193Z,9.20
2022-08-21T22:48:55.877Z,7.95
2022-08-21T22:51:32.662Z,8.18
2022-08-21T22:54:16.491Z,6.30
2022-08-21T22:56:49.530Z,15.80
2022-08-21T22:59:26.925Z,7.75
2022-08-21T23:02:03.827Z,8.55
2022-08-21T23:04:34.727Z,7.65
2022-08-21T23:07:06.103Z,9.13
2022-08-21T23:09:39.940Z,7.90
2022-08-21T23:12:32.961Z,6.07
2022-08-21T23:15:09.514Z,9.88
2022-08-21T23:17:50.294Z,8.30
2022-08-21T23:20:25.649Z,11.93
2022-08-21T23:23:05.088Z,9.23
2022-08-21T23:25:56.559Z,5.13
2022-08-21T23:28:40.752Z,7.22
2022-08-21T23:31:25.175Z,9.80
2022-08-21T23:34:11.728Z,10.07
2022-08-21T23:37:25.139Z,8.07
2022-08-21T23:40:31.970Z,5.90
2022-08-21T23:43:13.059Z,12.07
2022-08-21T23:45:56.527Z,10.35
2022-08-21T23:48:39.281Z,8.55
2022-08-21T23:51:14.812Z,9.90
2022-08-21T23:53:58.712Z,7.10
2022-08-21T23:56:52.265Z,8.70
2022-08-21T23:59:35.589Z,11.05
